createdAt,value
2023-04-23T00:00:44.718Z,12.41
2023-04-23T00:03:14.805Z,12.34
2023-04-23T00:05:44.994Z,12.34
2023-04-23T00:08:13.150Z,12.48
2023-04-23T00:10:40.928Z,12.41
2023-04-23T00:13:09.950Z,12.42
2023-04-23T00:15:38.373Z,12.36
2023-04-23T00:18:05.926Z,12.45
2023-04-23T00:20:34.161Z,12.52
2023-04-23T00:23:03.128Z,12.52
2023-04-23T00:25:30.798Z,12.52
2023-04-23T00:27:58.263Z,12.52
2023-04-23T00:30:25.810Z,12.56
2023-04-23T00:32:53.288Z,12.38
2023-04-23T00:35:20.766Z,12.36
2023-04-23T00:37:48.203Z,12.37
2023-04-23T00:40:17.061Z,12.34
2023-04-23T00:42:45.644Z,12.34
2023-04-23T00:45:13.248Z,12.31
2023-04-23T00:47:41.654Z,12.43
2023-04-23T00:50:09.815Z,12.44
2023-04-23T00:52:39.041Z,12.48
2023-04-23T00:55:08.384Z,12.48
2023-04-23T00:57:37.431Z,12.42
2023-04-23T01:00:07.165Z,12.44
2023-04-23T01:02:36.497Z,12.52
2023-04-23T01:05:06.593Z,12.39
2023-04-23T01:07:35.509Z,12.48
2023-04-23T01:10:03.170Z,12.33
2023-04-23T01:12:30.715Z,12.39
2023-04-23T01:14:59.527Z,12.37
2023-04-23T01:17:27.713Z,12.36
2023-04-23T01:19:55.283Z,12.48
2023-04-23T01:22:24.593Z,12.37
2023-04-23T01:24:52.736Z,12.52
2023-04-23T01:27:22.255Z,12.25
2023-04-23T01:29:50.326Z,12.30
2023-04-23T01:32:18.305Z,12.31
2023-04-23T01:34:47.794Z,12.24
2023-04-23T01:37:15.457Z,12.21
2023-04-23T01:39:44.265Z,12.33
2023-04-23T01:42:11.764Z,12.51
2023-04-23T01:44:39.663Z,12.39
2023-04-23T01:47:07.378Z,12.32
2023-04-23T01:49:34.936Z,12.18
2023-04-23T01:52:02.396Z,12.19
2023-04-23T01:54:29.886Z,12.17
2023-04-23T01:56:58.883Z,12.07
2023-04-23T01:59:26.370Z,12.12
2023-04-23T02:01:54.022Z,12.17
2023-04-23T02:04:21.779Z,12.12
2023-04-23T02:06:51.146Z,12.05
2023-04-23T02:09:18.629Z,12.13
2023-04-23T02:11:46.090Z,12.23
2023-04-23T02:14:14.874Z,12.26
2023-04-23T02:16:42.368Z,12.45
2023-04-23T02:19:09.784Z,12.35
2023-04-23T02:21:37.228Z,12.24
2023-04-23T02:24:06.034Z,12.21
2023-04-23T02:26:33.549Z,12.17
2023-04-23T02:29:01.011Z,12.22
2023-04-23T02:31:29.935Z,12.13
2023-04-23T02:33:57.972Z,12.31
2023-04-23T02:36:25.750Z,12.22
2023-04-23T02:38:53.177Z,12.17
2023-04-23T02:41:21.538Z,12.22
2023-04-23T02:43:49.006Z,12.34
2023-04-23T02:46:16.527Z,12.26
2023-04-23T02:48:45.333Z,12.17
2023-04-23T02:51:14.197Z,12.22
2023-04-23T02:53:41.667Z,12.20
2023-04-23T02:56:09.138Z,12.17
2023-04-23T02:58:36.668Z,12.20
2023-04-23T03:01:05.148Z,12.28
2023-04-23T03:03:33.109Z,12.22
2023-04-23T03:06:02.630Z,12.11
2023-04-23T03:08:30.228Z,12.13
2023-04-23T03:10:57.749Z,12.05
2023-04-23T03:13:25.830Z,12.18
2023-04-23T03:15:54.012Z,12.09
2023-04-23T03:18:21.662Z,12.21
2023-04-23T03:20:49.191Z,12.13
2023-04-23T03:23:18.042Z,12.00
2023-04-23T03:25:45.568Z,12.10
2023-04-23T03:28:13.048Z,12.15
2023-04-23T03:30:40.596Z,12.01
2023-04-23T03:33:08.122Z,11.98
2023-04-23T03:35:36.004Z,11.90
2023-04-23T03:38:03.499Z,11.86
2023-04-23T03:40:32.414Z,11.95
2023-04-23T03:43:00.018Z,11.95
2023-04-23T03:45:27.720Z,12.14
2023-04-23T03:47:55.282Z,12.09
2023-04-23T03:50:23.006Z,12.04
2023-04-23T03:52:53.585Z,11.92
2023-04-23T03:55:21.486Z,11.78
2023-04-23T03:57:50.341Z,11.83
2023-04-23T04:00:18.279Z,11.67
2023-04-23T04:02:45.891Z,11.76
2023-04-23T04:05:13.731Z,11.85
2023-04-23T04:07:41.300Z,11.75
2023-04-23T04:10:09.331Z,11.77
2023-04-23T04:12:37.066Z,11.61
2023-04-23T04:15:07.064Z,11.67
2023-04-23T04:17:34.561Z,11.81
2023-04-23T04:20:02.022Z,11.86
2023-04-23T04:22:30.672Z,11.79
2023-04-23T04:24:58.330Z,11.90
2023-04-23T04:27:25.776Z,11.77
2023-04-23T04:29:53.232Z,11.85
2023-04-23T04:32:23.347Z,11.73
2023-04-23T04:34:51.070Z,11.94
2023-04-23T04:37:18.633Z,11.96
2023-04-23T04:39:46.078Z,11.97
2023-04-23T04:42:13.640Z,11.93
2023-04-23T04:44:41.660Z,12.03
2023-04-23T04:47:09.358Z,11.79
2023-04-23T04:49:38.221Z,11.80
2023-04-23T04:52:06.374Z,11.90
2023-04-23T04:54:33.862Z,11.86
2023-04-23T04:57:02.208Z,11.81
2023-04-23T04:59:29.642Z,11.93
2023-04-23T05:01:57.612Z,11.85
2023-04-23T05:04:25.267Z,11.76
2023-04-23T05:06:54.075Z,11.70
2023-04-23T05:09:21.550Z,11.78
2023-04-23T05:11:49.514Z,11.81
2023-04-23T05:14:16.966Z,11.81
2023-04-23T05:16:44.480Z,11.94
2023-04-23T05:19:11.961Z,11.94
2023-04-23T05:21:39.400Z,12.07
2023-04-23T05:24:08.363Z,12.04
2023-04-23T05:26:35.840Z,12.04
2023-04-23T05:29:04.039Z,12.10
2023-04-23T05:31:31.602Z,12.13
2023-04-23T05:33:59.054Z,12.07
2023-04-23T05:36:27.363Z,11.97
2023-04-23T05:38:54.827Z,11.95
2023-04-23T05:41:23.617Z,12.09
2023-04-23T05:43:51.131Z,12.17
2023-04-23T05:46:18.639Z,12.26
2023-04-23T05:48:46.148Z,12.35
2023-04-23T05:51:14.187Z,12.49
2023-04-23T05:53:41.628Z,12.62
2023-04-23T05:56:09.085Z,12.68
2023-04-23T05:58:38.817Z,12.55
2023-04-23T06:01:06.587Z,12.65
2023-04-23T06:03:34.318Z,12.72
2023-04-23T06:06:02.275Z,12.77
2023-04-23T06:08:29.782Z,12.91
2023-04-23T06:10:57.280Z,12.81
2023-04-23T06:13:24.740Z,13.11
2023-04-23T06:15:53.552Z,13.13
2023-04-23T06:18:21.022Z,12.97
2023-04-23T06:20:51.299Z,13.10
2023-04-23T06:23:18.760Z,13.20
2023-04-23T06:25:46.238Z,13.26
2023-04-23T06:28:13.691Z,13.09
2023-04-23T06:30:41.350Z,13.14
2023-04-23T06:33:10.715Z,13.11
2023-04-23T06:35:38.176Z,12.85
2023-04-23T06:38:06.126Z,13.03
2023-04-23T06:40:33.617Z,13.02
2023-04-23T06:43:04.326Z,12.84
2023-04-23T06:45:33.359Z,13.04
2023-04-23T06:48:01.226Z,13.08
2023-04-23T06:50:31.010Z,13.24
2023-04-23T06:52:58.602Z,13.16
2023-04-23T06:55:26.662Z,13.41
2023-04-23T06:57:54.646Z,13.56
2023-04-23T07:00:23.115Z,13.46
2023-04-23T07:02:50.901Z,13.40
2023-04-23T07:05:19.038Z,13.51
2023-04-23T07:07:47.852Z,13.49
2023-04-23T07:10:17.575Z,13.72
2023-04-23T07:12:46.081Z,13.81
2023-04-23T07:15:13.556Z,13.61
2023-04-23T07:17:41.365Z,13.59
2023-04-23T07:20:09.903Z,13.64
2023-04-23T07:22:37.365Z,13.73
2023-04-23T07:25:08.518Z,13.87
2023-04-23T07:27:35.989Z,13.97
2023-04-23T07:30:03.518Z,13.99
2023-04-23T07:32:31.274Z,13.97
2023-04-23T07:34:58.774Z,14.12
2023-04-23T07:37:26.295Z,14.19
2023-04-23T07:39:54.551Z,14.30
2023-04-23T07:42:23.362Z,14.32
2023-04-23T07:44:50.859Z,14.16
2023-04-23T07:47:18.316Z,13.94
2023-04-23T07:49:45.811Z,14.00
2023-04-23T07:52:13.252Z,14.08
2023-04-23T07:54:40.752Z,14.26
2023-04-23T07:57:08.238Z,14.37
2023-04-23T07:59:39.305Z,14.32
2023-04-23T08:02:07.264Z,14.38
2023-04-23T08:04:35.125Z,14.33
2023-04-23T08:07:02.733Z,14.22
2023-04-23T08:09:30.237Z,14.31
2023-04-23T08:11:57.740Z,14.50
2023-04-23T08:14:25.220Z,14.61
2023-04-23T08:16:53.985Z,14.55
2023-04-23T08:19:21.417Z,14.63
2023-04-23T08:21:49.712Z,14.89
2023-04-23T08:24:17.133Z,15.12
2023-04-23T08:26:44.919Z,15.19
2023-04-23T08:29:12.476Z,15.20
2023-04-23T08:31:40.040Z,15.35
2023-04-23T08:34:08.863Z,15.32
2023-04-23T08:36:36.354Z,15.60
2023-04-23T08:39:04.171Z,15.88
2023-04-23T08:41:35.715Z,15.97
2023-04-23T08:44:08.823Z,16.04
2023-04-23T08:46:37.900Z,16.12
2023-04-23T08:49:06.069Z,16.24
2023-04-23T08:51:39.231Z,16.05
2023-04-23T08:54:08.111Z,16.29
2023-04-23T08:56:37.107Z,16.41
2023-04-23T08:59:09.058Z,16.27
2023-04-23T09:01:36.709Z,16.19
2023-04-23T09:04:04.401Z,16.21
2023-04-23T09:06:33.086Z,16.32
2023-04-23T09:09:01.861Z,16.55
2023-04-23T09:11:30.177Z,16.48
2023-04-23T09:13:57.804Z,16.55
2023-04-23T09:16:25.306Z,16.46
2023-04-23T09:18:53.406Z,16.34
2023-04-23T09:21:21.403Z,16.62
2023-04-23T09:23:52.956Z,16.57
2023-04-23T09:26:22.870Z,16.78
2023-04-23T09:28:51.225Z,16.72
2023-04-23T09:31:21.712Z,16.15
2023-04-23T09:33:53.739Z,16.17
2023-04-23T09:36:23.521Z,16.36
2023-04-23T09:38:51.509Z,16.59
2023-04-23T09:41:24.481Z,16.53
2023-04-23T09:43:54.165Z,16.65
2023-04-23T09:46:33.846Z,16.52
2023-04-23T09:49:03.849Z,16.21
2023-04-23T09:51:32.094Z,16.47
2023-04-23T09:53:59.570Z,16.65
2023-04-23T09:56:28.360Z,16.75
2023-04-23T09:58:55.815Z,16.87
2023-04-23T10:01:29.540Z,17.08
2023-04-23T10:03:57.775Z,17.09
2023-04-23T10:06:42.314Z,17.16
2023-04-23T10:09:14.138Z,17.08
2023-04-23T10:11:43.053Z,17.11
2023-04-23T10:14:10.725Z,17.09
2023-04-23T10:16:46.378Z,17.19
2023-04-23T10:19:18.983Z,17.15
2023-04-23T10:21:54.695Z,16.99
2023-04-23T10:24:25.462Z,17.18
2023-04-23T10:26:58.307Z,17.13
2023-04-23T10:29:29.476Z,16.85
2023-04-23T10:31:57.979Z,16.94
2023-04-23T10:34:26.223Z,16.92
2023-04-23T10:36:54.320Z,16.88
2023-04-23T10:39:29.790Z,16.69
2023-04-23T10:41:59.971Z,16.83
2023-04-23T10:44:56.697Z,17.06
2023-04-23T10:47:22.722Z,17.35
2023-04-23T10:49:51.598Z,17.61
2023-04-23T10:52:22.331Z,17.39
2023-04-23T10:54:59.739Z,17.27
2023-04-23T10:57:28.773Z,17.38
2023-04-23T10:59:58.648Z,17.40
2023-04-23T11:02:26.576Z,17.54
2023-04-23T11:04:56.901Z,17.72
2023-04-23T11:07:27.249Z,17.86
2023-04-23T11:09:56.404Z,17.97
2023-04-23T11:12:34.835Z,18.30
2023-04-23T11:15:11.687Z,18.06
2023-04-23T11:18:01.874Z,18.01
2023-04-23T11:20:29.617Z,17.59
2023-04-23T11:22:57.669Z,17.61
2023-04-23T11:25:26.823Z,17.18
2023-04-23T11:27:58.102Z,17.24
2023-04-23T11:30:26.460Z,17.16
2023-04-23T11:32:55.674Z,17.21
2023-04-23T11:35:24.439Z,17.28
2023-04-23T11:37:52.136Z,17.47
2023-04-23T11:40:20.356Z,17.42
2023-04-23T11:42:49.671Z,17.54
2023-04-23T11:45:20.282Z,17.51
2023-04-23T11:47:50.606Z,17.42
2023-04-23T11:50:19.323Z,17.44
2023-04-23T11:52:46.810Z,17.82
2023-04-23T11:55:14.408Z,18.04
2023-04-23T11:57:43.103Z,18.05
2023-04-23T12:00:19.353Z,17.59
2023-04-23T12:02:54.094Z,16.92
2023-04-23T12:05:23.054Z,16.89
2023-04-23T12:07:51.719Z,17.42
2023-04-23T12:10:20.588Z,17.51
2023-04-23T12:12:52.705Z,17.32
2023-04-23T12:15:21.884Z,17.28
2023-04-23T12:17:50.989Z,17.05
2023-04-23T12:20:19.994Z,16.93
2023-04-23T12:22:47.935Z,16.83
2023-04-23T12:25:15.929Z,16.87
2023-04-23T12:27:45.480Z,17.11
2023-04-23T12:30:13.618Z,17.25
2023-04-23T12:32:42.499Z,17.32
2023-04-23T12:35:11.261Z,17.36
2023-04-23T12:37:38.785Z,17.32
2023-04-23T12:40:08.044Z,17.42
2023-04-23T12:42:36.951Z,17.51
2023-04-23T12:45:09.413Z,17.71
2023-04-23T12:47:36.901Z,17.84
2023-04-23T12:50:06.692Z,17.93
2023-04-23T12:52:34.163Z,18.04
2023-04-23T12:55:01.686Z,18.05
2023-04-23T12:57:29.148Z,18.08
2023-04-23T12:59:56.730Z,18.30
2023-04-23T13:02:25.712Z,18.54
2023-04-23T13:04:54.646Z,18.64
2023-04-23T13:07:23.477Z,18.60
2023-04-23T13:09:51.041Z,18.56
2023-04-23T13:12:18.478Z,18.67
2023-04-23T13:14:45.954Z,18.76
2023-04-23T13:17:13.574Z,18.95
2023-04-23T13:19:41.522Z,18.87
2023-04-23T13:22:09.177Z,19.04
2023-04-23T13:24:37.948Z,18.96
2023-04-23T13:27:05.427Z,19.10
2023-04-23T13:29:33.468Z,19.11
2023-04-23T13:32:01.685Z,18.99
2023-04-23T13:34:29.171Z,19.12
2023-04-23T13:36:57.002Z,19.32
2023-04-23T13:39:24.607Z,19.14
2023-04-23T13:42:06.199Z,19.03
2023-04-23T13:44:36.708Z,19.15
2023-04-23T13:47:04.299Z,19.11
2023-04-23T13:49:31.748Z,19.37
2023-04-23T13:52:04.155Z,19.28
2023-04-23T13:54:31.602Z,19.12
2023-04-23T13:57:00.934Z,19.27
2023-04-23T13:59:28.376Z,19.01
2023-04-23T14:01:55.896Z,19.10
2023-04-23T14:04:24.110Z,19.05
2023-04-23T14:06:51.840Z,19.25
2023-04-23T14:09:22.012Z,19.38
2023-04-23T14:11:49.672Z,19.51
2023-04-23T14:14:18.654Z,19.63
2023-04-23T14:16:46.183Z,19.54
2023-04-23T14:19:13.721Z,19.46
2023-04-23T14:21:41.666Z,19.51
2023-04-23T14:24:11.636Z,19.52
2023-04-23T14:26:48.943Z,19.62
2023-04-23T14:29:25.350Z,19.68
2023-04-23T14:31:53.082Z,19.73
2023-04-23T14:34:21.050Z,19.68
2023-04-23T14:36:49.164Z,19.59
2023-04-23T14:39:16.905Z,19.80
2023-04-23T14:41:44.569Z,19.93
2023-04-23T14:44:12.310Z,19.94
2023-04-23T14:46:41.227Z,19.90
2023-04-23T14:49:08.800Z,19.89
2023-04-23T14:51:37.317Z,19.85
2023-04-23T14:54:05.284Z,19.77
2023-04-23T14:56:32.943Z,19.49
2023-04-23T14:59:00.500Z,19.27
2023-04-23T15:01:28.215Z,19.45
2023-04-23T15:03:57.296Z,19.47
2023-04-23T15:06:24.902Z,19.57
2023-04-23T15:08:52.351Z,19.39
2023-04-23T15:11:19.922Z,19.41
2023-04-23T15:13:51.095Z,19.44
2023-04-23T15:16:46.656Z,19.35
2023-04-23T15:19:18.196Z,19.32
2023-04-23T15:21:46.369Z,19.21
2023-04-23T15:24:14.040Z,19.09
2023-04-23T15:26:41.851Z,18.90
2023-04-23T15:29:09.998Z,18.91
2023-04-23T15:31:37.855Z,19.06
2023-04-23T15:34:08.603Z,19.12
2023-04-23T15:36:38.442Z,18.98
2023-04-23T15:39:06.792Z,18.82
2023-04-23T15:41:34.228Z,18.90
2023-04-23T15:44:02.590Z,18.77
2023-04-23T15:46:30.478Z,18.85
2023-04-23T15:48:58.060Z,18.82
2023-04-23T15:51:25.650Z,18.77
2023-04-23T15:53:54.532Z,18.75
2023-04-23T15:56:24.285Z,18.79
2023-04-23T15:58:51.726Z,18.65
2023-04-23T16:01:19.852Z,18.67
2023-04-23T16:04:01.805Z,18.61
2023-04-23T16:06:34.829Z,18.44
2023-04-23T16:09:07.027Z,18.31
2023-04-23T16:11:35.126Z,18.28
2023-04-23T16:14:03.069Z,18.23
2023-04-23T16:16:30.769Z,18.12
2023-04-23T16:18:58.324Z,17.99
2023-04-23T16:21:25.784Z,17.98
2023-04-23T16:23:53.257Z,17.98
2023-04-23T16:26:22.202Z,18.16
2023-04-23T16:28:52.196Z,17.76
2023-04-23T16:31:28.533Z,17.64
2023-04-23T16:33:56.263Z,17.14
2023-04-23T16:36:23.780Z,16.57
2023-04-23T16:38:51.312Z,16.23
2023-04-23T16:41:21.415Z,16.13
2023-04-23T16:43:50.237Z,15.54
2023-04-23T16:46:17.760Z,15.53
2023-04-23T16:48:45.597Z,15.66
2023-04-23T16:51:13.823Z,15.73
2023-04-23T16:53:41.357Z,15.77
2023-04-23T16:56:09.376Z,15.49
2023-04-23T16:58:36.943Z,15.53
2023-04-23T17:01:05.786Z,15.37
2023-04-23T17:03:33.862Z,15.13
2023-04-23T17:06:09.858Z,15.12
2023-04-23T17:08:37.996Z,15.09
2023-04-23T17:11:06.832Z,14.80
2023-04-23T17:13:35.118Z,14.61
2023-04-23T17:16:02.716Z,14.87
2023-04-23T17:18:31.612Z,15.15
2023-04-23T17:20:59.073Z,14.92
2023-04-23T17:23:26.614Z,14.87
2023-04-23T17:25:54.088Z,14.94
2023-04-23T17:28:21.540Z,14.63
2023-04-23T17:30:50.252Z,14.53
2023-04-23T17:33:17.986Z,14.55
2023-04-23T17:35:47.624Z,14.55
2023-04-23T17:38:19.652Z,14.35
2023-04-23T17:40:47.167Z,14.34
2023-04-23T17:43:14.684Z,14.45
2023-04-23T17:45:42.276Z,14.45
2023-04-23T17:48:10.509Z,14.45
2023-04-23T17:50:37.986Z,14.34
2023-04-23T17:53:06.818Z,14.20
2023-04-23T17:55:34.374Z,14.16
2023-04-23T17:58:05.215Z,14.24
2023-04-23T18:00:34.996Z,14.26
2023-04-23T18:03:02.741Z,14.12
2023-04-23T18:05:30.361Z,14.17
2023-04-23T18:07:57.920Z,14.10
2023-04-23T18:10:26.987Z,13.90
2023-04-23T18:12:55.047Z,13.78
2023-04-23T18:15:22.838Z,13.67
2023-04-23T18:17:50.472Z,13.81
2023-04-23T18:20:18.812Z,13.88
2023-04-23T18:22:46.242Z,13.72
2023-04-23T18:25:13.715Z,13.66
2023-04-23T18:27:42.489Z,13.80
2023-04-23T18:30:11.832Z,13.79
2023-04-23T18:32:44.463Z,13.52
2023-04-23T18:35:12.127Z,13.52
2023-04-23T18:37:44.640Z,13.55
2023-04-23T18:40:15.051Z,13.67
2023-04-23T18:42:43.836Z,13.59
2023-04-23T18:45:11.974Z,13.33
2023-04-23T18:47:44.941Z,13.34
2023-04-23T18:50:31.048Z,13.38
2023-04-23T18:52:58.580Z,13.22
2023-04-23T18:55:26.104Z,13.23
2023-04-23T18:57:56.068Z,13.26
2023-04-23T19:00:23.830Z,13.30
2023-04-23T19:02:51.367Z,13.29
2023-04-23T19:05:19.193Z,13.31
2023-04-23T19:07:48.325Z,13.22
2023-04-23T19:10:17.131Z,13.10
2023-04-23T19:12:47.800Z,13.19
2023-04-23T19:15:17.974Z,13.30
2023-04-23T19:17:46.794Z,13.41
2023-04-23T19:20:15.546Z,13.05
2023-04-23T19:22:43.151Z,12.95
2023-04-23T19:25:11.176Z,13.01
2023-04-23T19:27:38.781Z,13.03
2023-04-23T19:30:10.219Z,13.09
2023-04-23T19:32:39.012Z,12.96
2023-04-23T19:35:06.983Z,12.93
2023-04-23T19:37:35.968Z,13.01
2023-04-23T19:40:04.617Z,12.93
2023-04-23T19:42:32.544Z,12.94
2023-04-23T19:45:00.266Z,12.87
2023-04-23T19:47:27.772Z,12.76
2023-04-23T19:49:56.562Z,12.58
2023-04-23T19:52:25.115Z,12.64
2023-04-23T19:54:52.605Z,12.60
2023-04-23T19:57:22.053Z,12.72
2023-04-23T19:59:50.205Z,12.75
2023-04-23T20:02:17.948Z,12.45
2023-04-23T20:04:45.558Z,12.52
2023-04-23T20:07:14.495Z,12.61
2023-04-23T20:09:42.693Z,12.67
2023-04-23T20:12:10.369Z,12.74
2023-04-23T20:14:37.858Z,12.77
2023-04-23T20:17:05.594Z,12.74
2023-04-23T20:19:33.240Z,12.65
2023-04-23T20:22:03.863Z,12.90
2023-04-23T20:24:33.509Z,12.83
2023-04-23T20:27:01.551Z,12.71
2023-04-23T20:29:30.689Z,12.46
2023-04-23T20:31:58.281Z,12.59
2023-04-23T20:34:26.015Z,12.53
2023-04-23T20:36:53.466Z,12.66
2023-04-23T20:39:24.022Z,12.77
2023-04-23T20:42:00.900Z,12.71
2023-04-23T20:44:28.407Z,12.66
2023-04-23T20:46:57.803Z,12.71
2023-04-23T20:49:26.087Z,12.80
2023-04-23T20:51:54.242Z,12.74
2023-04-23T20:54:21.696Z,12.95
2023-04-23T20:56:53.868Z,12.85
2023-04-23T20:59:22.717Z,12.75
2023-04-23T21:01:50.526Z,12.84
2023-04-23T21:04:18.212Z,12.82
2023-04-23T21:06:46.982Z,12.70
2023-04-23T21:09:14.662Z,12.65
2023-04-23T21:11:42.257Z,12.61
2023-04-23T21:14:09.748Z,12.55
2023-04-23T21:16:39.082Z,12.55
2023-04-23T21:19:07.047Z,12.36
2023-04-23T21:21:34.488Z,12.45
2023-04-23T21:24:02.172Z,12.37
2023-04-23T21:26:31.065Z,12.20
2023-04-23T21:28:58.630Z,12.31
2023-04-23T21:31:32.448Z,12.27
2023-04-23T21:34:01.272Z,12.28
2023-04-23T21:36:29.058Z,12.25
2023-04-23T21:38:56.490Z,12.34
2023-04-23T21:41:24.410Z,12.26
2023-04-23T21:43:51.924Z,12.37
2023-04-23T21:46:19.487Z,12.50
2023-04-23T21:48:50.189Z,12.38
2023-04-23T21:51:18.999Z,12.35
2023-04-23T21:53:46.465Z,12.32
2023-04-23T21:56:14.482Z,12.31
2023-04-23T21:58:42.003Z,12.38
2023-04-23T22:01:09.554Z,12.42
2023-04-23T22:03:41.956Z,12.15
2023-04-23T22:06:10.580Z,12.23
2023-04-23T22:08:40.365Z,12.29
2023-04-23T22:11:08.583Z,12.02
2023-04-23T22:13:36.136Z,12.05
2023-04-23T22:16:06.606Z,12.28
2023-04-23T22:18:38.754Z,12.25
2023-04-23T22:21:06.483Z,12.23
2023-04-23T22:23:33.944Z,12.17
2023-04-23T22:26:02.740Z,12.21
2023-04-23T22:28:30.250Z,12.22
2023-04-23T22:30:57.756Z,12.24
2023-04-23T22:33:26.438Z,12.26
2023-04-23T22:35:53.962Z,12.17
2023-04-23T22:38:31.062Z,12.03
2023-04-23T22:40:58.566Z,12.04
2023-04-23T22:43:27.353Z,12.02
2023-04-23T22:45:54.892Z,11.98
2023-04-23T22:48:23.728Z,11.95
2023-04-23T22:50:52.497Z,12.02
2023-04-23T22:53:20.252Z,12.10
2023-04-23T22:55:49.351Z,11.97
2023-04-23T22:58:16.958Z,11.93
2023-04-23T23:00:46.006Z,11.98
2023-04-23T23:03:13.514Z,12.02
2023-04-23T23:05:41.059Z,12.17
2023-04-23T23:08:08.538Z,12.03
2023-04-23T23:10:36.009Z,11.91
2023-04-23T23:13:03.451Z,11.90
2023-04-23T23:15:31.051Z,11.87
2023-04-23T23:17:59.908Z,11.68
2023-04-23T23:20:27.407Z,11.56
2023-04-23T23:22:54.865Z,11.65
2023-04-23T23:25:22.704Z,11.83
2023-04-23T23:27:50.198Z,11.64
2023-04-23T23:30:17.767Z,11.82
2023-04-23T23:32:45.557Z,11.55
2023-04-23T23:35:14.386Z,11.48
2023-04-23T23:37:41.827Z,11.52
2023-04-23T23:40:10.842Z,11.62
2023-04-23T23:42:38.302Z,11.59
2023-04-23T23:45:06.994Z,11.63
2023-04-23T23:47:34.686Z,11.65
2023-04-23T23:50:02.199Z,11.58
2023-04-23T23:52:31.019Z,11.58
2023-04-23T23:54:58.481Z,11.61
2023-04-23T23:57:26.080Z,11.57
2023-04-23T23:59:53.609Z,11.58
